Artvin — 9HA2782 — position and weather

sailwx.info

Track history (hours):
 
Tides and Currents Weather Stations Pressure Air Temp Water Temp Dewpoint Dewpoint Depression Visibility Wind Speed Wind Dir Waves Ship Positions

Artvin

Last reported at 2014-Aug-13 04:33 UTC. Time now 2014-Aug-20 22:28 UTC.
Position N 50°22' W 000°47'.

Length 229 m; draft 9.2 m.

Type: Cargo ship. MMSI: 215678000.

Date/timePositionNaut miles runAvg speedWind from/ knotsBaromVisibWave heightAir tempDewpointWater temp
2014-Aug-13 04:33N 50°22' W 000°47'1212.1
2014-Aug-13 03:33N 50°26' W 000°29'1111.1
2014-Aug-13 02:33N 50°29' W 000°13'12 9.9
2014-Aug-13 01:20N 50°32' E 000°06'7 8.8
2014-Aug-13 00:33N 50°34' E 000°16'8 7.8
2014-Aug-12 23:33N 50°36' E 000°28'7 6.9
2014-Aug-12 22:33N 50°40' E 000°38'7 7.0
2014-Aug-12 21:33N 50°44' E 000°47'8 8.3
2014-Aug-12 20:33N 50°48' E 000°57'1010.2
2014-Aug-12 19:33N 50°55' E 001°10'1110.5
2014-Aug-12 18:33N 51°02' E 001°23'9 8.9
2014-Aug-12 17:33N 51°06' E 001°35'7 7.3
2014-Aug-12 16:33N 51°03' E 001°45'8 7.9
2014-Aug-12 15:32N 51°02' E 001°58'8 8.1
2014-Aug-12 14:33N 51°01' E 002°11'0 0.2
2014-Aug-12 13:29N 51°01' E 002°11'0 0.0
2014-Aug-12 12:20N 51°01' E 002°11'0 0.0
2014-Aug-12 11:29N 51°01' E 002°11'0 0.0
2014-Aug-12 10:23N 51°01' E 002°11'0 0.0
2014-Aug-12 09:05N 51°01' E 002°11'0 0.0
2014-Aug-12 08:20N 51°01' E 002°11'0 0.0
2014-Aug-12 07:17N 51°01' E 002°11'0 0.0
2014-Aug-12 01:32N 51°01' E 002°11'0 0.0
2014-Aug-12 00:29N 51°01' E 002°11'0 0.0
2014-Aug-11 23:26N 51°01' E 002°11'0 0.0
2014-Aug-11 21:17N 51°01' E 002°11'0 0.0
2014-Aug-11 20:26N 51°01' E 002°11'0 0.0
2014-Aug-11 19:32N 51°01' E 002°11'0 0.0
2014-Aug-11 17:05N 51°01' E 002°11'0 0.0
2014-Aug-11 16:32N 51°01' E 002°11'0 0.0
2014-Aug-11 15:26N 51°01' E 002°11'0 0.0
2014-Aug-11 14:32N 51°01' E 002°11'0 0.0
2014-Aug-11 11:26N 51°01' E 002°11'0 0.0
2014-Aug-11 10:32N 51°01' E 002°11'0 0.0
2014-Aug-11 07:29N 51°01' E 002°11'0 0.0
2014-Aug-11 06:17N 51°01' E 002°11'0 0.0
2014-Aug-11 01:32N 51°01' E 002°11'0 0.0
2014-Aug-10 22:26N 51°01' E 002°11'0 0.0
2014-Aug-10 21:23N 51°01' E 002°11'0 0.0
2014-Aug-10 12:32N 51°01' E 002°11'0 0.0
2014-Aug-10 11:32N 51°01' E 002°11'0 0.0
2014-Aug-10 10:26N 51°01' E 002°11'0 0.0
2014-Aug-10 09:14N 51°01' E 002°11'0 0.0
2014-Aug-10 06:23N 51°01' E 002°11'0 0.0
2014-Aug-10 01:17N 51°01' E 002°11'0 0.0
2014-Aug-09 23:32N 51°01' E 002°11'0 0.0
2014-Aug-09 22:20N 51°01' E 002°11'0 0.0
2014-Aug-09 12:23N 51°01' E 002°11'0 0.0
2014-Aug-09 09:20N 51°01' E 002°11'0 0.0
2014-Aug-09 06:20N 51°01' E 002°11'0 0.0
2014-Aug-09 04:32N 51°01' E 002°11'0 0.0
2014-Aug-09 03:26N 51°01' E 002°11'0 0.0
2014-Aug-09 02:11N 51°01' E 002°11'0 0.0
2014-Aug-09 01:17N 51°01' E 002°11'0 0.0
2014-Aug-09 00:31N 51°01' E 002°11'3 3.6
2014-Aug-08 23:33N 51°03' E 002°07'1110.6
2014-Aug-08 22:31N 51°03' E 001°49'1 0.8
2014-Aug-08 21:32N 51°03' E 001°48'0 0.1
2014-Aug-08 20:32N 51°03' E 001°48'0 0.1
2014-Aug-08 19:32N 51°03' E 001°48'0 0.1
2014-Aug-08 17:23N 51°03' E 001°48'0 0.0
2014-Aug-08 16:32N 51°03' E 001°48'0 0.0
2014-Aug-08 15:23N 51°03' E 001°48'0 0.0
2014-Aug-08 14:32N 51°03' E 001°48'0 0.2
2014-Aug-08 13:32N 51°03' E 001°48'0 0.1
2014-Aug-08 12:29N 51°03' E 001°48'0 0.0
2014-Aug-08 11:32N 51°03' E 001°48'0 0.0
2014-Aug-08 10:32N 51°03' E 001°48'0 0.0
2014-Aug-08 09:32N 51°03' E 001°48'0 0.0
2014-Aug-08 08:32N 51°03' E 001°48'0 0.3
2014-Aug-08 07:32N 51°03' E 001°48'0 0.1
2014-Aug-08 06:32N 51°03' E 001°48'0 0.0
2014-Aug-08 05:32N 51°03' E 001°48'0 0.0
2014-Aug-08 04:32N 51°03' E 001°48'0 0.0
2014-Aug-08 03:29N 51°03' E 001°48'0 0.1
2014-Aug-08 02:32N 51°03' E 001°48'0 0.0
2014-Aug-08 01:32N 51°03' E 001°48'0 0.2
2014-Aug-08 00:32N 51°03' E 001°48'0 0.1
2014-Aug-07 23:29N 51°03' E 001°48'0 0.0
2014-Aug-07 22:32N 51°03' E 001°48'0 0.0
2014-Aug-07 21:32N 51°03' E 001°48'0 0.3
2014-Aug-07 20:33N 51°03' E 001°48'6 6.2
2014-Aug-07 19:33N 51°01' E 001°39'1010.1
2014-Aug-07 18:33N 50°54' E 001°28'13 9.1
2014-Aug-07 17:07N 50°42' E 001°20'5 9.0
2014-Aug-07 16:33N 50°38' E 001°14'9 8.9
2014-Aug-07 15:33N 50°32' E 001°03'9 8.6
2014-Aug-07 14:33N 50°29' E 000°51'10 8.6
2014-Aug-07 13:21N 50°26' E 000°36'8 8.3
2014-Aug-07 12:22N 50°24' E 000°23'8 8.1
2014-Aug-07 11:25N 50°22' E 000°12'7 8.2
2014-Aug-07 10:32N 50°20' E 000°01'  
Track history (hours):
 
Tides and Currents Weather Stations Pressure Air Temp Water Temp Dewpoint Dewpoint Depression Visibility Wind Speed Wind Dir Waves Ship Positions

Artvin

Last reported at 2014-Aug-13 04:33 UTC. Time now 2014-Aug-20 22:28 UTC.
Position N 50°22' W 000°47'.

Length 229 m; draft 9.2 m.

Type: Cargo ship. MMSI: 215678000.

Date/timePositionNaut miles runAvg speedWind from/ knotsBaromVisibWave heightAir tempDewpointWater temp
2014-Aug-13 04:33N 50°22' W 000°47'1212.1
2014-Aug-13 03:33N 50°26' W 000°29'1111.1
2014-Aug-13 02:33N 50°29' W 000°13'12 9.9
2014-Aug-13 01:20N 50°32' E 000°06'7 8.8
2014-Aug-13 00:33N 50°34' E 000°16'8 7.8
2014-Aug-12 23:33N 50°36' E 000°28'7 6.9
2014-Aug-12 22:33N 50°40' E 000°38'7 7.0
2014-Aug-12 21:33N 50°44' E 000°47'8 8.3
2014-Aug-12 20:33N 50°48' E 000°57'1010.2
2014-Aug-12 19:33N 50°55' E 001°10'1110.5
2014-Aug-12 18:33N 51°02' E 001°23'9 8.9
2014-Aug-12 17:33N 51°06' E 001°35'7 7.3
2014-Aug-12 16:33N 51°03' E 001°45'8 7.9
2014-Aug-12 15:32N 51°02' E 001°58'8 8.1
2014-Aug-12 14:33N 51°01' E 002°11'0 0.2
2014-Aug-12 13:29N 51°01' E 002°11'0 0.0
2014-Aug-12 12:20N 51°01' E 002°11'0 0.0
2014-Aug-12 11:29N 51°01' E 002°11'0 0.0
2014-Aug-12 10:23N 51°01' E 002°11'0 0.0
2014-Aug-12 09:05N 51°01' E 002°11'0 0.0
2014-Aug-12 08:20N 51°01' E 002°11'0 0.0
2014-Aug-12 07:17N 51°01' E 002°11'0 0.0
2014-Aug-12 01:32N 51°01' E 002°11'0 0.0
2014-Aug-12 00:29N 51°01' E 002°11'0 0.0
2014-Aug-11 23:26N 51°01' E 002°11'0 0.0
2014-Aug-11 21:17N 51°01' E 002°11'0 0.0
2014-Aug-11 20:26N 51°01' E 002°11'0 0.0
2014-Aug-11 19:32N 51°01' E 002°11'0 0.0
2014-Aug-11 17:05N 51°01' E 002°11'0 0.0
2014-Aug-11 16:32N 51°01' E 002°11'0 0.0
2014-Aug-11 15:26N 51°01' E 002°11'0 0.0
2014-Aug-11 14:32N 51°01' E 002°11'0 0.0
2014-Aug-11 11:26N 51°01' E 002°11'0 0.0
2014-Aug-11 10:32N 51°01' E 002°11'0 0.0
2014-Aug-11 07:29N 51°01' E 002°11'0 0.0
2014-Aug-11 06:17N 51°01' E 002°11'0 0.0
2014-Aug-11 01:32N 51°01' E 002°11'0 0.0
2014-Aug-10 22:26N 51°01' E 002°11'0 0.0
2014-Aug-10 21:23N 51°01' E 002°11'0 0.0
2014-Aug-10 12:32N 51°01' E 002°11'0 0.0
2014-Aug-10 11:32N 51°01' E 002°11'0 0.0
2014-Aug-10 10:26N 51°01' E 002°11'0 0.0
2014-Aug-10 09:14N 51°01' E 002°11'0 0.0
2014-Aug-10 06:23N 51°01' E 002°11'0 0.0
2014-Aug-10 01:17N 51°01' E 002°11'0 0.0
2014-Aug-09 23:32N 51°01' E 002°11'0 0.0
2014-Aug-09 22:20N 51°01' E 002°11'0 0.0
2014-Aug-09 12:23N 51°01' E 002°11'0 0.0
2014-Aug-09 09:20N 51°01' E 002°11'0 0.0
2014-Aug-09 06:20N 51°01' E 002°11'0 0.0
2014-Aug-09 04:32N 51°01' E 002°11'0 0.0
2014-Aug-09 03:26N 51°01' E 002°11'0 0.0
2014-Aug-09 02:11N 51°01' E 002°11'0 0.0
2014-Aug-09 01:17N 51°01' E 002°11'0 0.0
2014-Aug-09 00:31N 51°01' E 002°11'3 3.6
2014-Aug-08 23:33N 51°03' E 002°07'1110.6
2014-Aug-08 22:31N 51°03' E 001°49'1 0.8
2014-Aug-08 21:32N 51°03' E 001°48'0 0.1
2014-Aug-08 20:32N 51°03' E 001°48'0 0.1
2014-Aug-08 19:32N 51°03' E 001°48'0 0.1
2014-Aug-08 17:23N 51°03' E 001°48'0 0.0
2014-Aug-08 16:32N 51°03' E 001°48'0 0.0
2014-Aug-08 15:23N 51°03' E 001°48'0 0.0
2014-Aug-08 14:32N 51°03' E 001°48'0 0.2
2014-Aug-08 13:32N 51°03' E 001°48'0 0.1
2014-Aug-08 12:29N 51°03' E 001°48'0 0.0
2014-Aug-08 11:32N 51°03' E 001°48'0 0.0
2014-Aug-08 10:32N 51°03' E 001°48'0 0.0
2014-Aug-08 09:32N 51°03' E 001°48'0 0.0
2014-Aug-08 08:32N 51°03' E 001°48'0 0.3
2014-Aug-08 07:32N 51°03' E 001°48'0 0.1
2014-Aug-08 06:32N 51°03' E 001°48'0 0.0
2014-Aug-08 05:32N 51°03' E 001°48'0 0.0
2014-Aug-08 04:32N 51°03' E 001°48'0 0.0
2014-Aug-08 03:29N 51°03' E 001°48'0 0.1
2014-Aug-08 02:32N 51°03' E 001°48'0 0.0
2014-Aug-08 01:32N 51°03' E 001°48'0 0.2
2014-Aug-08 00:32N 51°03' E 001°48'0 0.1
2014-Aug-07 23:29N 51°03' E 001°48'0 0.0
2014-Aug-07 22:32N 51°03' E 001°48'0 0.0
2014-Aug-07 21:32N 51°03' E 001°48'0 0.3
2014-Aug-07 20:33N 51°03' E 001°48'6 6.2
2014-Aug-07 19:33N 51°01' E 001°39'1010.1
2014-Aug-07 18:33N 50°54' E 001°28'13 9.1
2014-Aug-07 17:07N 50°42' E 001°20'5 9.0
2014-Aug-07 16:33N 50°38' E 001°14'9 8.9
2014-Aug-07 15:33N 50°32' E 001°03'9 8.6
2014-Aug-07 14:33N 50°29' E 000°51'10 8.6
2014-Aug-07 13:21N 50°26' E 000°36'8 8.3
2014-Aug-07 12:22N 50°24' E 000°23'8 8.1
2014-Aug-07 11:25N 50°22' E 000°12'7 8.2
2014-Aug-07 10:32N 50°20' E 000°01'  

Dump ship's entire track history